createdAt,value
2022-11-04T00:00:34.315Z,9.87
2022-11-04T00:03:01.055Z,9.75
2022-11-04T00:05:27.812Z,9.64
2022-11-04T00:08:13.215Z,9.53
2022-11-04T00:10:58.770Z,9.38
2022-11-04T00:13:25.512Z,9.24
2022-11-04T00:16:12.492Z,9.11
2022-11-04T00:18:39.289Z,9.00
2022-11-04T00:21:24.672Z,8.91
2022-11-04T00:24:09.755Z,8.88
2022-11-04T00:26:55.063Z,8.82
2022-11-04T00:29:21.943Z,8.80
2022-11-04T00:32:07.171Z,8.77
2022-11-04T00:34:33.875Z,8.72
2022-11-04T00:37:02.936Z,8.70
2022-11-04T00:39:30.252Z,8.68
2022-11-04T00:41:56.926Z,8.64
2022-11-04T00:44:23.733Z,8.59
2022-11-04T00:46:50.562Z,8.56
2022-11-04T00:49:17.263Z,8.51
2022-11-04T00:51:43.986Z,8.45
2022-11-04T00:54:10.805Z,8.43
2022-11-04T00:56:39.658Z,8.38
2022-11-04T00:59:10.339Z,8.34
2022-11-04T01:01:41.132Z,8.33
2022-11-04T01:04:09.094Z,8.31
2022-11-04T01:06:35.846Z,8.33
2022-11-04T01:09:11.097Z,8.38
2022-11-04T01:11:37.819Z,8.40
2022-11-04T01:14:05.208Z,8.45
2022-11-04T01:16:33.330Z,8.51
2022-11-04T01:19:00.117Z,8.59
2022-11-04T01:21:26.847Z,8.66
2022-11-04T01:23:53.574Z,8.77
2022-11-04T01:26:24.958Z,8.85
2022-11-04T01:28:54.873Z,8.92
2022-11-04T01:31:25.955Z,8.98
2022-11-04T01:33:54.757Z,9.04
2022-11-04T01:36:22.928Z,9.11
2022-11-04T01:38:50.394Z,9.20
2022-11-04T01:41:30.842Z,9.23
2022-11-04T01:44:36.583Z,9.29
2022-11-04T01:47:05.033Z,9.35
2022-11-04T01:49:43.313Z,9.40
2022-11-04T01:52:18.888Z,9.38
2022-11-04T01:54:48.810Z,9.33
2022-11-04T01:57:25.096Z,9.31
2022-11-04T01:59:52.662Z,9.30
2022-11-04T02:02:23.721Z,9.27
2022-11-04T02:04:50.733Z,9.24
2022-11-04T02:07:17.454Z,9.22
2022-11-04T02:09:44.972Z,9.20
2022-11-04T02:12:30.344Z,9.15
2022-11-04T02:14:58.446Z,9.11
2022-11-04T02:18:04.806Z,9.10
2022-11-04T02:20:40.371Z,9.03
2022-11-04T02:23:25.067Z,8.99
2022-11-04T02:26:39.582Z,8.97
2022-11-04T02:29:44.770Z,8.89
2022-11-04T02:32:56.931Z,8.84
2022-11-04T02:35:41.261Z,8.80
2022-11-04T02:38:30.325Z,8.74
2022-11-04T02:40:56.968Z,8.70
2022-11-04T02:44:12.096Z,8.65
2022-11-04T02:46:57.306Z,8.59
2022-11-04T02:49:33.626Z,8.57
2022-11-04T02:52:09.409Z,8.54
2022-11-04T02:55:08.007Z,8.53
2022-11-04T02:57:40.268Z,8.52
2022-11-04T03:00:09.752Z,8.47
2022-11-04T03:02:47.342Z,8.43
2022-11-04T03:05:21.295Z,8.38
2022-11-04T03:07:52.752Z,8.35
2022-11-04T03:10:28.324Z,8.34
2022-11-04T03:13:05.257Z,8.33
2022-11-04T03:15:37.889Z,8.32
2022-11-04T03:18:24.818Z,8.31
2022-11-04T03:20:55.115Z,8.29
2022-11-04T03:23:21.952Z,8.31
2022-11-04T03:25:57.762Z,8.29
2022-11-04T03:28:39.247Z,8.29
2022-11-04T03:31:18.995Z,8.28
2022-11-04T03:33:52.330Z,8.28
2022-11-04T03:36:22.394Z,8.27
2022-11-04T03:38:52.633Z,8.25
2022-11-04T03:41:47.840Z,8.21
2022-11-04T03:44:14.723Z,8.17
2022-11-04T03:46:41.917Z,8.08
2022-11-04T03:49:12.179Z,8.05
2022-11-04T03:51:38.954Z,8.01
2022-11-04T03:54:07.739Z,7.99
2022-11-04T03:56:34.346Z,7.97
2022-11-04T03:59:48.615Z,7.96
2022-11-04T04:02:26.672Z,7.91
2022-11-04T04:05:02.973Z,7.88
2022-11-04T04:07:44.266Z,7.81
2022-11-04T04:10:41.757Z,7.79
2022-11-04T04:13:51.006Z,7.72
2022-11-04T04:16:34.512Z,7.63
2022-11-04T04:19:10.172Z,7.59
2022-11-04T04:21:52.385Z,7.59
2022-11-04T04:24:42.365Z,7.62
2022-11-04T04:27:46.259Z,7.66
2022-11-04T04:30:16.328Z,7.67
2022-11-04T04:32:56.252Z,7.71
2022-11-04T04:35:42.253Z,7.72
2022-11-04T04:38:48.093Z,7.71
2022-11-04T04:41:49.958Z,7.65
2022-11-04T04:44:47.550Z,7.62
2022-11-04T04:47:21.184Z,7.57
2022-11-04T04:49:57.754Z,7.54
2022-11-04T04:52:44.333Z,7.53
2022-11-04T04:55:12.465Z,7.52
2022-11-04T04:57:39.455Z,7.46
2022-11-04T05:00:10.235Z,7.42
2022-11-04T05:02:37.215Z,7.42
2022-11-04T05:05:04.448Z,7.44
2022-11-04T05:07:31.259Z,7.42
2022-11-04T05:09:58.113Z,7.41
2022-11-04T05:12:25.020Z,7.37
2022-11-04T05:14:51.904Z,7.36
2022-11-04T05:17:18.592Z,7.35
2022-11-04T05:19:45.372Z,7.35
2022-11-04T05:22:12.083Z,7.33
2022-11-04T05:24:38.864Z,7.32
2022-11-04T05:27:05.544Z,7.32
2022-11-04T05:29:32.319Z,7.30
2022-11-04T05:31:59.075Z,7.28
2022-11-04T05:34:26.198Z,7.27
2022-11-04T05:36:52.951Z,7.23
2022-11-04T05:39:19.875Z,7.24
2022-11-04T05:41:46.629Z,7.25
2022-11-04T05:44:13.357Z,7.23
2022-11-04T05:46:40.146Z,7.20
2022-11-04T05:49:06.896Z,7.19
2022-11-04T05:51:33.817Z,7.16
2022-11-04T05:54:01.682Z,7.16
2022-11-04T05:56:28.668Z,7.15
2022-11-04T05:58:55.485Z,7.18
2022-11-04T06:01:33.738Z,7.20
2022-11-04T06:04:02.140Z,7.24
2022-11-04T06:06:33.279Z,7.28
2022-11-04T06:09:00.779Z,7.32
2022-11-04T06:11:29.925Z,7.34
2022-11-04T06:13:57.297Z,7.38
2022-11-04T06:16:25.101Z,7.39
2022-11-04T06:18:53.241Z,7.40
2022-11-04T06:21:26.480Z,7.41
2022-11-04T06:23:57.303Z,7.39
2022-11-04T06:26:30.717Z,7.41
2022-11-04T06:28:57.834Z,7.44
2022-11-04T06:31:24.833Z,7.45
2022-11-04T06:33:51.538Z,7.46
2022-11-04T06:36:18.319Z,7.47
2022-11-04T06:38:45.148Z,7.49
2022-11-04T06:41:16.221Z,7.50
2022-11-04T06:43:43.469Z,7.52
2022-11-04T06:46:37.001Z,7.55
2022-11-04T06:49:06.747Z,7.55
2022-11-04T06:51:34.206Z,7.57
2022-11-04T06:54:01.381Z,7.59
2022-11-04T06:56:28.332Z,7.63
2022-11-04T06:58:56.768Z,7.67
2022-11-04T07:01:28.106Z,7.71
2022-11-04T07:03:58.756Z,7.74
2022-11-04T07:06:28.710Z,7.78
2022-11-04T07:09:01.674Z,7.81
2022-11-04T07:11:32.365Z,7.88
2022-11-04T07:13:59.198Z,7.94
2022-11-04T07:16:26.019Z,8.01
2022-11-04T07:18:55.355Z,8.05
2022-11-04T07:21:22.992Z,8.07
2022-11-04T07:23:49.964Z,8.13
2022-11-04T07:26:17.156Z,8.08
2022-11-04T07:28:43.890Z,8.08
2022-11-04T07:31:13.489Z,8.09
2022-11-04T07:33:40.439Z,8.08
2022-11-04T07:36:12.387Z,8.12
2022-11-04T07:38:39.360Z,8.16
2022-11-04T07:41:06.567Z,8.20
2022-11-04T07:43:33.368Z,8.28
2022-11-04T07:46:03.254Z,8.32
2022-11-04T07:48:30.191Z,8.32
2022-11-04T07:50:59.764Z,8.33
2022-11-04T07:53:27.969Z,8.40
2022-11-04T07:55:56.132Z,8.46
2022-11-04T07:58:24.065Z,8.59
2022-11-04T08:00:51.460Z,8.64
2022-11-04T08:03:18.231Z,8.70
2022-11-04T08:05:44.976Z,8.73
2022-11-04T08:08:11.712Z,8.70
2022-11-04T08:10:38.431Z,8.67
2022-11-04T08:13:05.240Z,8.72
2022-11-04T08:15:32.048Z,8.81
2022-11-04T08:17:58.783Z,8.92
2022-11-04T08:20:25.505Z,8.93
2022-11-04T08:22:52.289Z,9.04
2022-11-04T08:25:19.087Z,9.19
2022-11-04T08:27:46.390Z,9.34
2022-11-04T08:30:13.256Z,9.46
2022-11-04T08:32:40.278Z,9.59
2022-11-04T08:35:09.189Z,9.69
2022-11-04T08:37:36.429Z,9.80
2022-11-04T08:40:03.608Z,9.85
2022-11-04T08:42:30.740Z,9.93
2022-11-04T08:44:57.597Z,9.98
2022-11-04T08:47:24.424Z,10.08
2022-11-04T08:49:51.506Z,10.18
2022-11-04T08:52:18.230Z,10.24
2022-11-04T08:54:45.267Z,10.29
2022-11-04T08:57:12.252Z,10.33
2022-11-04T08:59:39.044Z,10.43
2022-11-04T09:02:05.962Z,10.49
2022-11-04T09:04:32.751Z,10.50
2022-11-04T09:07:07.957Z,10.50
2022-11-04T09:09:35.349Z,10.54
2022-11-04T09:12:02.034Z,10.63
2022-11-04T09:14:29.020Z,10.77
2022-11-04T09:16:56.082Z,10.91
2022-11-04T09:19:22.846Z,11.02
2022-11-04T09:21:49.666Z,11.10
2022-11-04T09:24:16.427Z,11.18
2022-11-04T09:26:44.692Z,11.29
2022-11-04T09:29:11.532Z,11.39
2022-11-04T09:31:39.167Z,11.50
2022-11-04T09:34:05.936Z,11.52
2022-11-04T09:36:32.757Z,11.51
2022-11-04T09:38:59.664Z,11.47
2022-11-04T09:41:29.148Z,11.46
2022-11-04T09:44:11.695Z,11.49
2022-11-04T09:46:39.700Z,11.53
2022-11-04T09:49:12.829Z,11.59
2022-11-04T09:51:57.961Z,11.60
2022-11-04T09:54:53.171Z,11.59
2022-11-04T09:57:20.773Z,11.48
2022-11-04T09:59:49.216Z,11.42
2022-11-04T10:02:43.059Z,11.30
2022-11-04T10:05:34.784Z,11.26
2022-11-04T10:09:04.018Z,11.30
2022-11-04T10:12:03.378Z,11.27
2022-11-04T10:14:52.860Z,11.24
2022-11-04T10:17:47.587Z,11.27
2022-11-04T10:20:41.059Z,11.28
2022-11-04T10:23:38.302Z,11.27
2022-11-04T10:26:20.291Z,11.28
2022-11-04T10:28:58.392Z,11.28
2022-11-04T10:31:25.498Z,11.34
2022-11-04T10:34:00.910Z,11.41
2022-11-04T10:36:27.883Z,11.47
2022-11-04T10:38:56.684Z,11.53
2022-11-04T10:41:40.759Z,11.61
2022-11-04T10:44:22.523Z,11.74
2022-11-04T10:46:59.351Z,11.74
2022-11-04T10:50:28.275Z,11.80
2022-11-04T10:53:13.969Z,11.88
2022-11-04T10:56:18.853Z,11.92
2022-11-04T10:58:47.863Z,12.10
2022-11-04T11:01:35.050Z,12.22
2022-11-04T11:04:07.621Z,12.37
2022-11-04T11:06:37.122Z,12.49
2022-11-04T11:09:21.259Z,12.63
2022-11-04T11:11:51.427Z,12.85
2022-11-04T11:14:32.835Z,13.02
2022-11-04T11:17:14.776Z,12.94
2022-11-04T11:20:20.277Z,12.90
2022-11-04T11:22:51.946Z,12.92
2022-11-04T11:25:31.002Z,12.90
2022-11-04T11:28:02.583Z,12.93
2022-11-04T11:30:46.622Z,12.91
2022-11-04T11:33:36.306Z,12.83
2022-11-04T11:36:11.909Z,12.78
2022-11-04T11:39:04.144Z,12.84
2022-11-04T11:41:52.955Z,13.13
2022-11-04T11:44:44.499Z,13.69
2022-11-04T11:47:28.187Z,14.24
2022-11-04T11:50:33.344Z,14.61
2022-11-04T11:53:23.812Z,15.04
2022-11-04T11:56:13.824Z,15.46
2022-11-04T12:02:10.632Z,15.58
2022-11-04T12:11:13.084Z,15.57
2022-11-04T12:13:49.011Z,15.53
2022-11-04T12:16:29.432Z,15.35
2022-11-04T12:19:14.166Z,15.26
2022-11-04T12:22:09.831Z,15.15
2022-11-04T12:25:04.960Z,15.00
2022-11-04T12:28:22.352Z,14.98
2022-11-04T12:31:38.125Z,15.00
2022-11-04T12:34:39.621Z,14.94
2022-11-04T12:37:32.787Z,14.84
2022-11-04T12:40:14.242Z,14.71
2022-11-04T12:42:43.454Z,14.60
2022-11-04T12:45:56.826Z,14.54
2022-11-04T12:48:35.649Z,14.50
2022-11-04T12:51:25.562Z,14.45
2022-11-04T12:54:24.543Z,14.50
2022-11-04T12:57:08.410Z,14.60
2022-11-04T13:00:08.244Z,14.76
2022-11-04T13:02:43.764Z,14.85
2022-11-04T13:05:47.471Z,14.85
2022-11-04T13:08:37.494Z,14.92
2022-11-04T13:11:22.821Z,14.89
2022-11-04T13:14:02.715Z,14.81
2022-11-04T13:16:37.863Z,14.63
2022-11-04T13:19:20.559Z,14.47
2022-11-04T13:21:48.592Z,14.28
2022-11-04T13:24:35.032Z,14.16
2022-11-04T13:27:19.766Z,14.04
2022-11-04T13:29:50.839Z,13.96
2022-11-04T13:32:33.472Z,13.92
2022-11-04T13:35:19.165Z,13.82
2022-11-04T13:38:03.750Z,13.78
2022-11-04T13:40:53.094Z,13.79
2022-11-04T13:43:40.799Z,13.78
2022-11-04T13:46:10.459Z,13.81
2022-11-04T13:48:55.339Z,13.86
2022-11-04T13:51:22.533Z,13.95
2022-11-04T13:53:58.258Z,14.03
2022-11-04T13:56:38.327Z,14.07
2022-11-04T13:59:29.152Z,14.04
2022-11-04T14:02:18.943Z,13.88
2022-11-04T14:04:47.344Z,13.74
2022-11-04T14:07:17.991Z,13.59
2022-11-04T14:09:44.710Z,13.47
2022-11-04T14:12:11.451Z,13.37
2022-11-04T14:15:03.672Z,13.31
2022-11-04T14:17:33.434Z,13.30
2022-11-04T14:20:22.099Z,13.23
2022-11-04T14:22:55.623Z,13.13
2022-11-04T14:26:01.488Z,13.03
2022-11-04T14:28:32.256Z,12.94
2022-11-04T14:31:17.133Z,12.89
2022-11-04T14:33:51.365Z,12.84
2022-11-04T14:36:21.100Z,12.78
2022-11-04T14:39:12.601Z,12.69
2022-11-04T14:42:01.945Z,12.66
2022-11-04T14:44:49.665Z,12.66
2022-11-04T14:47:21.954Z,12.65
2022-11-04T14:49:59.344Z,12.65
2022-11-04T14:52:41.911Z,12.62
2022-11-04T14:55:11.493Z,12.60
2022-11-04T14:57:51.989Z,12.59
2022-11-04T15:00:23.154Z,12.57
2022-11-04T15:03:10.457Z,12.54
2022-11-04T15:06:05.749Z,12.49
2022-11-04T15:08:34.152Z,12.44
2022-11-04T15:11:42.557Z,12.40
2022-11-04T15:14:14.956Z,12.35
2022-11-04T15:16:45.841Z,12.32
2022-11-04T15:19:27.361Z,12.28
2022-11-04T15:21:54.270Z,12.27
2022-11-04T15:24:21.979Z,12.24
2022-11-04T15:26:54.505Z,12.22
2022-11-04T15:29:24.484Z,12.16
2022-11-04T15:32:04.593Z,12.12
2022-11-04T15:34:35.506Z,12.06
2022-11-04T15:37:05.536Z,12.05
2022-11-04T15:39:43.527Z,12.05
2022-11-04T15:42:37.209Z,12.03
2022-11-04T15:45:22.288Z,12.00
2022-11-04T15:47:50.762Z,11.96
2022-11-04T15:50:26.049Z,11.90
2022-11-04T15:52:55.972Z,11.85
2022-11-04T15:55:27.465Z,11.81
2022-11-04T15:57:55.943Z,11.75
2022-11-04T16:00:28.475Z,11.69
2022-11-04T16:02:59.614Z,11.64
2022-11-04T16:05:40.076Z,11.60
2022-11-04T16:08:27.269Z,11.51
2022-11-04T16:11:15.323Z,11.43
2022-11-04T16:13:43.638Z,11.36
2022-11-04T16:16:27.569Z,11.31
2022-11-04T16:18:59.250Z,11.26
2022-11-04T16:21:36.545Z,11.21
2022-11-04T16:24:16.431Z,11.15
2022-11-04T16:26:46.473Z,11.11
2022-11-04T16:29:22.080Z,11.06
2022-11-04T16:32:29.359Z,10.97
2022-11-04T16:35:03.128Z,10.88
2022-11-04T16:37:31.641Z,10.81
2022-11-04T16:39:58.365Z,10.75
2022-11-04T16:42:25.093Z,10.69
2022-11-04T16:44:59.263Z,10.65
2022-11-04T16:47:28.535Z,10.62
2022-11-04T16:50:00.100Z,10.56
2022-11-04T16:52:28.229Z,10.53
2022-11-04T16:54:58.012Z,10.48
2022-11-04T16:57:25.750Z,10.43
2022-11-04T16:59:52.532Z,10.38
2022-11-04T17:02:31.368Z,10.39
2022-11-04T17:04:58.712Z,10.36
2022-11-04T17:07:40.697Z,10.34
2022-11-04T17:10:17.173Z,10.32
2022-11-04T17:12:44.945Z,10.31
2022-11-04T17:15:13.815Z,10.30
2022-11-04T17:17:41.197Z,10.29
2022-11-04T17:20:12.125Z,10.30
2022-11-04T17:22:38.943Z,10.28
2022-11-04T17:25:17.881Z,10.28
2022-11-04T17:27:44.775Z,10.26
2022-11-04T17:30:14.198Z,10.24
2022-11-04T17:32:42.346Z,10.20
2022-11-04T17:35:10.597Z,10.20
2022-11-04T17:37:37.976Z,10.16
2022-11-04T17:40:06.701Z,10.13
2022-11-04T17:42:52.513Z,10.11
2022-11-04T17:45:19.207Z,10.08
2022-11-04T17:47:46.416Z,10.06
2022-11-04T17:50:13.814Z,10.05
2022-11-04T17:52:42.233Z,10.05
2022-11-04T17:55:15.399Z,10.01
2022-11-04T17:57:44.359Z,9.97
2022-11-04T18:00:14.182Z,9.93
2022-11-04T18:02:41.784Z,9.94
2022-11-04T18:05:09.687Z,10.01
2022-11-04T18:07:36.894Z,10.03
2022-11-04T18:10:04.129Z,10.06
2022-11-04T18:12:37.005Z,10.05
2022-11-04T18:15:13.463Z,10.09
2022-11-04T18:17:42.551Z,10.06
2022-11-04T18:20:14.583Z,10.00
2022-11-04T18:22:43.325Z,9.99
2022-11-04T18:25:12.774Z,9.99
2022-11-04T18:27:40.023Z,9.95
2022-11-04T18:30:08.700Z,9.90
2022-11-04T18:32:35.709Z,9.87
2022-11-04T18:35:02.451Z,9.84
2022-11-04T18:37:29.456Z,9.83
2022-11-04T18:39:56.161Z,9.83
2022-11-04T18:42:23.269Z,9.82
2022-11-04T18:44:50.342Z,9.82
2022-11-04T18:47:17.867Z,9.82
2022-11-04T18:49:44.747Z,9.81
2022-11-04T18:52:11.447Z,9.81
2022-11-04T18:54:38.256Z,9.81
2022-11-04T18:57:05.104Z,9.81
2022-11-04T18:59:32.253Z,9.82
2022-11-04T19:01:59.152Z,9.79
2022-11-04T19:04:26.070Z,9.75
2022-11-04T19:06:52.944Z,9.70
2022-11-04T19:12:36.694Z,9.62
2022-11-04T19:15:04.778Z,9.57
2022-11-04T19:17:31.591Z,9.50
2022-11-04T19:19:58.459Z,9.43
2022-11-04T19:22:25.211Z,9.35
2022-11-04T19:24:52.093Z,9.30
2022-11-04T19:27:21.544Z,9.23
2022-11-04T19:29:48.958Z,9.16
2022-11-04T19:32:15.624Z,9.10
2022-11-04T19:34:43.431Z,9.04
2022-11-04T19:37:10.846Z,8.99
2022-11-04T19:39:38.133Z,8.94
2022-11-04T19:42:23.667Z,8.89
2022-11-04T19:44:50.409Z,8.83
2022-11-04T19:47:17.173Z,8.77
2022-11-04T19:49:43.888Z,8.69
2022-11-04T19:52:10.747Z,8.64
2022-11-04T19:54:37.496Z,8.62
2022-11-04T19:57:04.907Z,8.60
2022-11-04T19:59:31.939Z,8.57
2022-11-04T20:01:59.535Z,8.54
2022-11-04T20:04:26.387Z,8.51
2022-11-04T20:06:53.156Z,8.46
2022-11-04T20:09:22.318Z,8.41
2022-11-04T20:12:07.722Z,8.39
2022-11-04T20:14:34.724Z,8.36
2022-11-04T20:17:02.688Z,8.33
2022-11-04T20:19:29.385Z,8.31
2022-11-04T20:21:56.140Z,8.29
2022-11-04T20:24:24.862Z,8.25
2022-11-04T20:26:51.720Z,8.23
2022-11-04T20:29:18.538Z,8.19
2022-11-04T20:31:45.779Z,8.18
2022-11-04T20:34:14.801Z,8.15
2022-11-04T20:36:41.865Z,8.10
2022-11-04T20:39:17.879Z,8.05
2022-11-04T20:41:46.188Z,8.02
2022-11-04T20:44:15.541Z,7.99
2022-11-04T20:46:44.115Z,7.98
2022-11-04T20:49:12.183Z,7.97
2022-11-04T20:51:48.617Z,7.94
2022-11-04T20:54:17.941Z,7.89
2022-11-04T20:56:45.429Z,7.86
2022-11-04T20:59:14.018Z,7.81
2022-11-04T21:01:44.336Z,7.79
2022-11-04T21:04:15.259Z,7.78
2022-11-04T21:06:42.424Z,7.76
2022-11-04T21:09:13.195Z,7.74
2022-11-04T21:11:40.474Z,7.73
2022-11-04T21:14:11.134Z,7.66
2022-11-04T21:16:38.070Z,7.63
2022-11-04T21:19:05.694Z,7.65
2022-11-04T21:21:33.273Z,7.68
2022-11-04T21:24:03.319Z,7.66
2022-11-04T21:26:34.038Z,7.62
2022-11-04T21:29:08.140Z,7.59
2022-11-04T21:31:36.848Z,7.58
2022-11-04T21:34:04.600Z,7.56
2022-11-04T21:36:32.199Z,7.56
2022-11-04T21:38:59.752Z,7.56
2022-11-04T21:41:30.418Z,7.53
2022-11-04T21:44:00.326Z,7.54
2022-11-04T21:46:30.397Z,7.55
2022-11-04T21:48:57.559Z,7.53
2022-11-04T21:51:29.066Z,7.53
2022-11-04T21:53:57.659Z,7.51
2022-11-04T21:56:32.975Z,7.48
2022-11-04T21:59:01.586Z,7.46
2022-11-04T22:01:31.137Z,7.42
2022-11-04T22:04:01.715Z,7.42
2022-11-04T22:06:34.776Z,7.42
2022-11-04T22:09:05.958Z,7.41
2022-11-04T22:11:36.533Z,7.46
2022-11-04T22:14:07.346Z,7.51
2022-11-04T22:16:38.721Z,7.54
2022-11-04T22:19:10.280Z,7.57
2022-11-04T22:21:41.029Z,7.58
2022-11-04T22:24:15.014Z,7.57
2022-11-04T22:26:43.060Z,7.54
2022-11-04T22:29:10.895Z,7.50
2022-11-04T22:31:41.807Z,7.46
2022-11-04T22:34:09.676Z,7.41
2022-11-04T22:36:36.768Z,7.39
2022-11-04T22:39:03.876Z,7.41
2022-11-04T22:41:34.404Z,7.43
2022-11-04T22:44:01.432Z,7.47
2022-11-04T22:46:31.870Z,7.50
2022-11-04T22:49:02.013Z,7.52
2022-11-04T22:51:31.250Z,7.53
2022-11-04T22:54:02.891Z,7.56
2022-11-04T22:56:31.535Z,7.60
2022-11-04T22:59:00.243Z,7.63
2022-11-04T23:01:27.316Z,7.63
2022-11-04T23:03:54.176Z,7.64
2022-11-04T23:06:21.040Z,7.70
2022-11-04T23:08:47.877Z,7.74
2022-11-04T23:11:39.157Z,7.82
2022-11-04T23:14:24.505Z,7.87
2022-11-04T23:17:10.834Z,7.92
2022-11-04T23:19:38.850Z,7.93
2022-11-04T23:22:25.869Z,7.95
2022-11-04T23:25:06.653Z,7.99
2022-11-04T23:28:03.287Z,8.03
2022-11-04T23:30:34.195Z,8.06
2022-11-04T23:33:05.756Z,8.12
2022-11-04T23:36:08.665Z,8.10
2022-11-04T23:38:35.629Z,8.07
2022-11-04T23:41:25.552Z,8.08
2022-11-04T23:43:53.162Z,8.07
2022-11-04T23:46:43.182Z,8.02
2022-11-04T23:49:30.060Z,8.00
2022-11-04T23:52:15.828Z,7.94
2022-11-04T23:55:05.756Z,7.87
2022-11-04T23:57:51.268Z,7.79
